»·PEaware :: N430U KYKM-KPSC

N430U :: KYKM-KPSC

FLIGHT INFORMATION

Flight Status: Arrived
Operator: Privately registered:
United States
More flights under this callsign
Pilot: Joe C. (32404)
Aircraft: CESSNA 172 SKYHAWK
(C172)
More flights by this aircraft type
Origin: KYKM Yakima Air Term/Mcallister
United States
Destination: KPSC Tri-Cities
United States
More flights between these airports :: More routes between these airports
Route:
File this flight plan on PilotEdge
Remarks:
Altitude:
(Current/Filed)
5,500ft
Speed:
(Current/Filed)
0kts
Departed: 22-Nov-20 01:01 PM
Arrived: 22-Nov-20 01:39 PM
Distance/Time
Traveled:
62nm/0:38
Distance/Time
To Go:
Arrived

Flight Plot

Page will automatically refresh every two minutes.

Flight plan parsing failed; only flown route is shown


Map Options




Map Legend


Flown Route
Filed Route
Departure Airport
Arrival Airport
Navaid (VOR, NDB)
Fix

Horizontal Profiles

Position Reports

Time Latitude Longitude Heading Altitude Ground
Speed
22-Nov-20 12:48 46.573231 -120.554211 192 1094ft 0kts
22-Nov-20 12:49 46.573231 -120.554211 192 1094ft 0kts
22-Nov-20 12:50 46.572959 -120.553962 153 1093ft 4kts
22-Nov-20 12:51 46.571485 -120.551008 111 1087ft 16kts
22-Nov-20 12:52 46.569557 -120.542925 110 1072ft 22kts
22-Nov-20 12:53 46.567491 -120.534750 110 1059ft 18kts
22-Nov-20 12:54 46.566468 -120.531513 188 1054ft 0kts
22-Nov-20 12:55 46.566468 -120.531513 188 1054ft 0kts
22-Nov-20 12:56 46.566468 -120.531513 188 1054ft 0kts
22-Nov-20 12:57 46.566468 -120.531513 188 1054ft 0kts
22-Nov-20 12:58 46.566468 -120.531513 188 1054ft 0kts
22-Nov-20 12:59 46.565679 -120.531881 259 1055ft 8kts
22-Nov-20 13:00 46.570901 -120.552385 288 1321ft 82kts
22-Nov-20 13:01 46.565021 -120.576316 203 1938ft 85kts
22-Nov-20 13:02 46.553564 -120.551161 110 2564ft 87kts
22-Nov-20 13:03 46.545781 -120.516551 114 3171ft 98kts
22-Nov-20 13:04 46.539241 -120.478689 102 3834ft 93kts
22-Nov-20 13:05 46.533202 -120.440480 107 4391ft 97kts
22-Nov-20 13:06 46.527664 -120.402002 93 4948ft 94kts
22-Nov-20 13:08 46.524352 -120.363260 105 5502ft 100kts
22-Nov-20 13:09 46.524127 -120.318881 106 5463ft 116kts
22-Nov-20 13:10 46.514647 -120.273501 108 5463ft 117kts
22-Nov-20 13:11 46.505026 -120.228014 108 5464ft 118kts
22-Nov-20 13:12 46.495342 -120.182166 108 5461ft 118kts
22-Nov-20 13:13 46.485709 -120.136640 108 5465ft 118kts
22-Nov-20 13:14 46.476008 -120.090886 108 5468ft 119kts
22-Nov-20 13:15 46.466128 -120.044388 108 5462ft 120kts
22-Nov-20 13:16 46.456337 -119.998403 108 5462ft 118kts
22-Nov-20 13:17 46.446578 -119.952687 108 5463ft 118kts
22-Nov-20 13:18 46.436843 -119.907176 108 5499ft 118kts
22-Nov-20 13:19 46.426988 -119.861206 108 5498ft 119kts
22-Nov-20 13:20 46.417110 -119.815234 108 5499ft 119kts
22-Nov-20 13:21 46.407217 -119.769291 108 5498ft 119kts
22-Nov-20 13:22 46.397323 -119.723450 108 5499ft 119kts
22-Nov-20 13:22 46.389070 -119.685288 108 5500ft 118kts
22-Nov-20 13:24 46.377501 -119.631906 108 5499ft 119kts
22-Nov-20 13:24 46.369240 -119.593879 108 5501ft 119kts
22-Nov-20 13:26 46.357560 -119.540223 108 5499ft 119kts
22-Nov-20 13:27 46.347721 -119.495134 108 5501ft 116kts
22-Nov-20 13:27 46.339461 -119.457352 108 5502ft 118kts
22-Nov-20 13:29 46.328016 -119.404235 103 5397ft 119kts
22-Nov-20 13:29 46.326135 -119.369589 92 5223ft 104kts
22-Nov-20 13:31 46.327976 -119.321212 82 4686ft 101kts
22-Nov-20 13:31 46.331128 -119.287297 82 4236ft 101kts
22-Nov-20 13:32 46.333994 -119.248423 90 3561ft 94kts
22-Nov-20 13:33 46.330660 -119.212051 121 2810ft 90kts
22-Nov-20 13:34 46.315636 -119.185780 137 2172ft 82kts
22-Nov-20 13:35 46.299296 -119.163067 135 1535ft 75kts
22-Nov-20 13:36 46.284519 -119.143283 138 804ft 69kts
22-Nov-20 13:37 46.270962 -119.124425 140 399ft 49kts
22-Nov-20 13:38 46.264850 -119.115857 132 399ft 29kts
22-Nov-20 13:39 46.262734 -119.109994 71 404ft 9kts
22-Nov-20 13:40 46.263478 -119.106862 72 405ft 14kts
22-Nov-20 13:41 46.264609 -119.106387 337 405ft 14kts

Navigation Log

Ident Type
Flight plan parsing failed, navigation log unavailable